Bethel Airport
PABE : now visible

Aeroporto :











RITROVATECI SU...

 
LOGIN :

Iscrizione | Disclaimer

   EN    FR    IT 

 









Sommario :    VFR   VFR Marginale   IFR   IFR Intensivo   IFR Molto Intensivo
Visibilità : 
Base nubi : 
>= 8 km
>= 3000ft
5 / 8 km
1000 / 3000 ft
1500m / 5 km
500 / 1000 ft
800 / 1500m
200 / 500 ft
< 800m
< 200 ft
Simboli :   Temporali  Nebbia  Neve Forte  Precipitazioni Forti  Vento > 20 kt






- Altitudine del aeroporto : 126 ft
- Codice IATA : BET


PABE - Bethel

ULTIMO METAR :
  • 011953Z 12012KT 10SM BKN100 15/05 A2953 RMK AO2 SLP002 T01500050

METARs OBSOLETI :
  • 011853Z 08008KT 10SM OVC110 13/06 A2953 RMK SLP002 T01280056 VIA AUTODIAL
  • 011753Z 08009KT 10SM OVC100 11/06 A2953 RMK AO2 SLP001 T01060056 10106 20072 53006 $

TAF PABE
Valido dal 01 a 18 ore il 02 a 18 ore UTC


011728Z 0118/0218 06005KT P6SM BKN120
FM021200 VRB04KT P6SM SCT030 BKN050
FIR PAZA / America del Nord



MetMap, La meteo Aeronautica in un colpo d'occhio ! - Copyright ORBIFLY Dicembre 2007 - Disclaimer

ORBIFLY MET'MAP TEAM :

Programmazione e sviluppo : Alexandra Zaïnal
Concezione : Baudouin d'Aumeries
Aiuto per la programmazione : Marc-Olivier Méhu
Supporto tecnico e logistico : Manuel Goepfert
Aiuto per la traduzione : Arnaldo La Scala

Contatto : metmap@orbifly.com




FONTI E CREDITI :

   NOAA       Earth
Advisory